Time;durP1;ratioP1;P1;durP2;ratioP2;P2;SDS_P1;SDS_P2;PMS_P1;PMS_P2;Temp;Humidity;BMP_temperature;BMP_pressure;BME280_temperature;BME280_humidity;BME280_pressure;Samples;Min_cycle;Max_cycle;Signal;HPM_P1;HPM_P2
2021/05/02 00:00:22;;;;;;;47.85;22.50;;;;;;;4.01;100.00;101614.53;5165374;28;20448;-78
2021/05/02 00:02:53;;;;;;;47.42;21.67;;;;;;;4.04;100.00;101612.53;5153913;28;20058;-77
2021/05/02 00:05:26;;;;;;;51.05;22.33;;;;;;;4.10;100.00;101609.47;5167215;28;20061;-77
2021/05/02 00:07:57;;;;;;;46.25;22.67;;;;;;;4.18;100.00;101618.72;5166306;28;20026;-77
2021/05/02 00:10:30;;;;;;;49.30;22.55;;;;;;;4.23;100.00;101628.06;5167920;28;20555;-78
2021/05/02 00:13:03;;;;;;;50.08;24.17;;;;;;;4.30;100.00;101620.50;5176319;28;20026;-77
2021/05/02 00:15:33;;;;;;;50.83;24.23;;;;;;;4.35;100.00;101621.03;5168564;28;20030;-77
2021/05/02 00:18:04;;;;;;;56.05;27.40;;;;;;;4.77;100.00;101625.16;5174707;28;20495;-77
2021/05/02 00:20:35;;;;;;;50.08;24.00;;;;;;;4.99;100.00;101620.94;5165406;28;20026;-77
2021/05/02 00:23:06;;;;;;;69.18;32.83;;;;;;;4.88;100.00;101621.72;5150088;28;20030;-77
2021/05/02 00:25:36;;;;;;;43.25;21.02;;;;;;;4.72;100.00;101621.09;5179064;28;20030;-78
2021/05/02 00:28:08;;;;;;;35.17;17.70;;;;;;;4.59;100.00;101621.13;5178465;28;20029;-77
2021/05/02 00:30:40;;;;;;;42.10;21.02;;;;;;;4.56;100.00;101624.84;5158174;28;20034;-78
2021/05/02 00:33:11;;;;;;;42.05;20.88;;;;;;;4.55;100.00;101622.28;5180797;28;20033;-78
2021/05/02 00:35:42;;;;;;;41.65;20.60;;;;;;;4.87;100.00;101625.31;5168822;28;20117;-78
2021/05/02 00:38:13;;;;;;;44.83;21.67;;;;;;;4.83;100.00;101619.38;5178425;28;20117;-77
2021/05/02 00:40:49;;;;;;;36.50;20.05;;;;;;;4.72;100.00;101631.72;5164647;28;20120;-77
2021/05/02 00:43:29;;;;;;;43.35;20.92;;;;;;;4.63;100.00;101623.47;5177830;28;20414;-78
2021/05/02 00:46:11;;;;;;;44.97;22.10;;;;;;;4.64;100.00;101626.97;5176182;28;20077;-78
2021/05/02 00:48:51;;;;;;;52.45;23.67;;;;;;;4.63;100.00;101628.78;5165218;28;20117;-77
2021/05/02 00:51:24;;;;;;;49.03;23.48;;;;;;;4.59;100.00;101631.75;5177877;28;20395;-77
2021/05/02 00:54:01;;;;;;;49.47;23.65;;;;;;;4.64;100.00;101619.00;5176273;28;20021;-77
2021/05/02 00:56:35;;;;;;;49.00;23.80;;;;;;;4.66;100.00;101628.53;5170089;28;20045;-77
2021/05/02 00:59:17;;;;;;;50.15;24.20;;;;;;;4.63;100.00;101630.59;5168286;28;20057;-77
2021/05/02 01:01:52;;;;;;;53.22;23.90;;;;;;;4.65;100.00;101616.22;5169378;28;20030;-77
2021/05/02 01:04:30;;;;;;;50.42;24.17;;;;;;;4.65;100.00;101621.53;5178134;28;20026;-77
2021/05/02 01:07:03;;;;;;;54.40;24.60;;;;;;;4.65;100.00;101620.69;5194166;28;20364;-77
2021/05/02 01:09:33;;;;;;;54.70;25.52;;;;;;;4.63;100.00;101626.13;5166727;28;20024;-77
2021/05/02 01:12:10;;;;;;;55.45;26.85;;;;;;;4.62;100.00;101632.41;5185008;28;20025;-78
2021/05/02 01:14:52;;;;;;;60.85;26.58;;;;;;;4.63;100.00;101626.13;5179704;28;20030;-77
2021/05/02 01:17:24;;;;;;;58.83;26.83;;;;;;;4.67;100.00;101630.25;5165339;28;20038;-77
2021/05/02 01:20:13;;;;;;;56.50;25.60;;;;;;;4.72;100.00;101637.03;5153778;28;20034;-78
2021/05/02 01:22:59;;;;;;;60.70;27.98;;;;;;;4.96;100.00;101631.78;5164680;28;20077;-78
2021/05/02 01:25:54;;;;;;;53.53;24.10;;;;;;;5.00;100.00;101627.94;5165787;28;20037;-77
2021/05/02 01:28:42;;;;;;;51.22;25.23;;;;;;;5.01;100.00;101634.94;5155655;28;20500;-78
2021/05/02 01:31:14;;;;;;;57.67;25.05;;;;;;;4.94;100.00;101632.75;5179569;28;20037;-78
2021/05/02 01:33:46;;;;;;;51.28;23.35;;;;;;;4.94;100.00;101631.91;5169722;28;20435;-77
2021/05/02 01:36:16;;;;;;;49.83;24.02;;;;;;;4.94;100.00;101629.25;5173629;28;20052;-77
2021/05/02 01:38:52;;;;;;;48.47;24.27;;;;;;;4.92;100.00;101634.69;5168345;28;20018;-77
2021/05/02 01:41:26;;;;;;;50.58;23.33;;;;;;;4.90;100.00;101631.25;5173613;28;20050;-77
2021/05/02 01:43:57;;;;;;;55.45;24.63;;;;;;;4.91;100.00;101637.44;5161681;28;20381;-77
2021/05/02 01:46:40;;;;;;;47.03;23.92;;;;;;;4.90;100.00;101636.56;5175870;28;20022;-77
2021/05/02 01:49:15;;;;;;;53.55;25.05;;;;;;;4.88;100.00;101637.66;5184270;28;20029;-77
2021/05/02 01:51:46;;;;;;;51.75;24.45;;;;;;;4.87;100.00;101635.94;5179432;28;20030;-77
2021/05/02 01:54:17;;;;;;;56.75;26.20;;;;;;;4.86;100.00;101637.75;5188132;28;20126;-78
2021/05/02 01:56:48;;;;;;;58.50;26.70;;;;;;;4.82;100.00;101643.41;5183692;28;20104;-77
2021/05/02 01:59:21;;;;;;;62.83;28.30;;;;;;;4.91;100.00;101648.06;5172009;28;20031;-77
2021/05/02 02:01:52;;;;;;;80.75;33.40;;;;;;;5.13;100.00;101650.03;5175514;28;20021;-77
2021/05/02 02:04:28;;;;;;;60.13;27.35;;;;;;;5.13;100.00;101648.22;5168185;28;20087;-78
2021/05/02 02:06:59;;;;;;;59.13;26.50;;;;;;;5.11;100.00;101649.28;5184215;28;20045;-77
2021/05/02 02:09:30;;;;;;;64.18;28.58;;;;;;;5.17;100.00;101646.16;5187539;28;20026;-77
2021/05/02 02:12:01;;;;;;;54.47;25.13;;;;;;;5.14;100.00;101643.75;5181654;28;20030;-77
2021/05/02 02:14:32;;;;;;;49.15;23.42;;;;;;;5.01;100.00;101649.09;5183316;28;20049;-77
2021/05/02 02:17:05;;;;;;;54.65;26.48;;;;;;;4.91;100.00;101651.56;5176326;28;20101;-77
2021/05/02 02:19:36;;;;;;;54.28;25.15;;;;;;;4.78;100.00;101656.06;5173541;28;20121;-78
2021/05/02 02:22:07;;;;;;;57.60;26.35;;;;;;;4.69;100.00;101662.03;5169780;28;20021;-77
2021/05/02 02:24:57;;;;;;;53.90;24.25;;;;;;;4.63;100.00;101663.31;5162305;28;20053;-78
2021/05/02 02:27:29;;;;;;;60.40;27.30;;;;;;;4.59;100.00;101663.66;5163403;28;20026;-77
2021/05/02 02:30:03;;;;;;;56.78;27.27;;;;;;;4.47;100.00;101664.50;5170785;28;20130;-78
2021/05/02 02:32:35;;;;;;;61.63;26.45;;;;;;;4.40;100.00;101659.59;5172191;28;20073;-77
2021/05/02 02:35:08;;;;;;;68.43;29.60;;;;;;;4.35;100.00;101659.06;5172229;28;20026;-77
2021/05/02 02:37:43;;;;;;;67.68;29.40;;;;;;;4.29;100.00;101664.81;5166407;28;20038;-78
2021/05/02 02:40:15;;;;;;;70.38;30.92;;;;;;;4.24;100.00;101671.41;5162390;28;20045;-77
2021/05/02 02:42:46;;;;;;;73.30;30.40;;;;;;;4.18;100.00;101669.19;5168625;28;20026;-78
2021/05/02 02:45:17;;;;;;;69.53;29.38;;;;;;;4.11;100.00;101676.69;5170775;28;20117;-77
2021/05/02 02:47:53;;;;;;;65.82;29.77;;;;;;;4.00;100.00;101663.28;5167815;28;20436;-78
2021/05/02 02:50:27;;;;;;;64.40;29.10;;;;;;;3.89;100.00;101662.22;5164364;28;20034;-77
2021/05/02 02:53:05;;;;;;;60.70;27.60;;;;;;;3.79;100.00;101673.56;5174627;28;20038;-78
2021/05/02 02:55:38;;;;;;;66.13;28.88;;;;;;;3.65;100.00;101671.81;5167607;28;20518;-77
2021/05/02 02:58:13;;;;;;;68.25;30.00;;;;;;;3.49;100.00;101671.13;5177851;28;20026;-77
2021/05/02 03:00:45;;;;;;;87.60;33.80;;;;;;;3.52;100.00;101677.09;5184146;28;20029;-77
2021/05/02 03:03:18;;;;;;;89.28;36.00;;;;;;;4.27;100.00;101682.69;5168396;28;20050;-77
2021/05/02 03:05:51;;;;;;;70.65;30.50;;;;;;;4.40;100.00;101680.00;5178250;28;20030;-77
2021/05/02 03:08:24;;;;;;;61.00;28.30;;;;;;;4.42;100.00;101675.47;5167331;28;20030;-77
2021/05/02 03:10:54;;;;;;;58.65;26.75;;;;;;;4.31;100.00;101686.81;5171942;28;20423;-77
2021/05/02 03:13:25;;;;;;;64.68;28.05;;;;;;;4.89;100.00;101684.56;5170240;28;20029;-77
2021/05/02 03:15:57;;;;;;;57.53;27.83;;;;;;;4.72;100.00;101687.53;5173233;28;20109;-78
2021/05/02 03:18:34;;;;;;;53.30;24.92;;;;;;;4.35;100.00;101695.41;5180880;28;20076;-78
2021/05/02 03:21:08;;;;;;;62.47;28.00;;;;;;;4.19;100.00;101692.97;5169123;28;20088;-77
2021/05/02 03:23:42;;;;;;;70.07;30.08;;;;;;;4.05;100.00;101690.38;5163002;28;20034;-77
2021/05/02 03:26:13;;;;;;;65.25;28.60;;;;;;;4.06;100.00;101692.09;5163070;28;20022;-77
2021/05/02 03:28:52;;;;;;;426.70;70.22;;;;;;;3.77;100.00;101697.56;5178035;28;20106;-77
2021/05/02 03:31:31;;;;;;;67.57;30.48;;;;;;;3.72;100.00;101698.81;5176917;28;20455;-78
2021/05/02 03:34:04;;;;;;;65.03;27.08;;;;;;;3.48;100.00;101695.97;5154652;28;20066;-77
2021/05/02 03:36:44;;;;;;;64.03;28.83;;;;;;;3.26;100.00;101697.34;5170502;28;20419;-77
2021/05/02 03:39:15;;;;;;;67.78;30.88;;;;;;;3.11;100.00;101698.31;5186534;28;20133;-78
2021/05/02 03:41:45;;;;;;;69.00;29.38;;;;;;;2.98;100.00;101703.56;5185804;28;20030;-77
2021/05/02 03:44:16;;;;;;;76.63;30.75;;;;;;;2.87;100.00;101705.19;5170887;28;20484;-77
2021/05/02 03:46:46;;;;;;;74.03;30.00;;;;;;;2.77;100.00;101707.53;5166584;28;20112;-77
2021/05/02 03:49:18;;;;;;;101.70;36.85;;;;;;;2.67;100.00;101707.25;5170647;28;20076;-77
2021/05/02 03:51:48;;;;;;;128.48;42.22;;;;;;;3.01;100.00;101713.09;5186703;28;20484;-77
2021/05/02 03:54:19;;;;;;;77.28;30.52;;;;;;;3.07;100.00;101715.38;5186599;28;20427;-77
2021/05/02 03:56:50;;;;;;;64.32;27.52;;;;;;;3.10;100.00;101713.38;5174039;28;20038;-78
2021/05/02 03:59:23;;;;;;;51.03;25.40;;;;;;;3.16;100.00;101721.88;5173430;28;20030;-78
2021/05/02 04:01:56;;;;;;;66.25;27.60;;;;;;;3.18;100.00;101727.97;5172174;28;20018;-77
2021/05/02 04:04:30;;;;;;;64.47;27.75;;;;;;;2.98;100.00;101727.41;5155173;28;20023;-77
2021/05/02 04:07:05;;;;;;;65.13;28.65;;;;;;;2.83;100.00;101731.00;5180228;28;20030;-77
2021/05/02 04:09:37;;;;;;;57.95;25.63;;;;;;;2.67;100.00;101738.22;5177365;28;20545;-78
2021/05/02 04:12:09;;;;;;;55.88;25.15;;;;;;;2.55;100.00;101732.69;5180807;28;20076;-77
2021/05/02 04:14:40;;;;;;;63.53;27.42;;;;;;;2.48;100.00;101741.97;5166104;28;20484;-78
2021/05/02 04:17:13;;;;;;;67.30;27.23;;;;;;;2.42;100.00;101741.47;5179215;28;20059;-77
2021/05/02 04:19:45;;;;;;;65.13;27.58;;;;;;;2.24;100.00;101748.72;5166477;28;20022;-77
2021/05/02 04:22:17;;;;;;;61.70;26.45;;;;;;;2.21;100.00;101748.88;5186345;28;20032;-77
2021/05/02 04:24:48;;;;;;;65.75;27.83;;;;;;;2.15;100.00;101758.03;5170884;28;20081;-77
2021/05/02 04:27:19;;;;;;;71.13;29.10;;;;;;;2.13;100.00;101762.59;5167172;28;20096;-77
2021/05/02 04:29:49;;;;;;;69.40;29.83;;;;;;;2.07;100.00;101762.94;5178588;28;20026;-78
2021/05/02 04:32:20;;;;;;;64.38;26.35;;;;;;;2.07;100.00;101762.94;5176818;28;20026;-77
2021/05/02 04:34:51;;;;;;;65.00;28.25;;;;;;;2.18;100.00;101771.09;5163732;28;20017;-78
2021/05/02 04:37:22;;;;;;;63.83;26.45;;;;;;;2.12;100.00;101768.81;5186210;28;20057;-77
2021/05/02 04:39:52;;;;;;;72.18;27.70;;;;;;;2.21;100.00;101768.28;5185474;28;20503;-77
2021/05/02 04:42:23;;;;;;;64.38;26.60;;;;;;;2.44;100.00;101769.56;5172364;28;20030;-77
2021/05/02 04:44:53;;;;;;;60.13;25.85;;;;;;;2.48;100.00;101772.91;5176718;28;20029;-77
2021/05/02 04:47:23;;;;;;;92.68;35.38;;;;;;;2.61;100.00;101779.16;5167393;28;20041;-77
2021/05/02 04:49:54;;;;;;;109.63;38.08;;;;;;;3.26;100.00;101779.56;5177024;28;20026;-78
2021/05/02 04:52:24;;;;;;;53.53;22.90;;;;;;;3.12;100.00;101779.56;5180984;28;20038;-78
2021/05/02 04:54:55;;;;;;;76.95;31.80;;;;;;;3.18;100.00;101778.34;5166503;28;20026;-77
2021/05/02 04:57:25;;;;;;;58.08;26.25;;;;;;;3.26;100.00;101784.88;5164319;28;20038;-77
2021/05/02 04:59:56;;;;;;;58.22;23.77;;;;;;;3.13;100.00;101786.56;5176582;28;20034;-78
2021/05/02 05:02:26;;;;;;;46.33;21.40;;;;;;;3.07;100.00;101786.97;5181802;28;20045;-78
2021/05/02 05:04:57;;;;;;;51.70;23.73;;;;;;;2.98;100.00;101798.97;5165675;28;20034;-78
2021/05/02 05:07:27;;;;;;;61.13;22.15;;;;;;;2.95;100.00;101795.66;5165204;28;20038;-78
2021/05/02 05:09:58;;;;;;;48.95;21.88;;;;;;;2.95;100.00;101808.91;5165673;28;20065;-78
2021/05/02 05:12:28;;;;;;;51.60;23.30;;;;;;;2.98;100.00;101806.09;5166813;28;20026;-78
2021/05/02 05:14:59;;;;;;;55.45;25.70;;;;;;;3.01;100.00;101811.19;5166554;28;20468;-78
2021/05/02 05:17:29;;;;;;;56.15;24.33;;;;;;;3.04;100.00;101814.50;5166238;28;20354;-78
2021/05/02 05:20:00;;;;;;;62.10;25.17;;;;;;;3.09;100.00;101809.78;5166132;28;20034;-77
2021/05/02 05:22:30;;;;;;;54.38;25.15;;;;;;;3.16;100.00;101810.22;5173627;28;20369;-78
2021/05/02 05:25:01;;;;;;;64.95;27.15;;;;;;;3.28;100.00;101814.78;5182479;28;20023;-78
2021/05/02 05:27:31;;;;;;;59.53;26.95;;;;;;;3.85;100.00;101821.81;5166121;28;20037;-78
2021/05/02 05:30:03;;;;;;;48.80;24.23;;;;;;;5.51;100.00;101822.03;5165564;28;20046;-77
2021/05/02 05:32:33;;;;;;;48.65;21.25;;;;;;;7.32;100.00;101820.78;5164978;28;20026;-77
2021/05/02 05:35:04;;;;;;;38.45;19.38;;;;;;;8.64;100.00;101836.78;5162839;28;20033;-77
2021/05/02 05:37:35;;;;;;;36.80;19.33;;;;;;;9.62;100.00;101828.28;5178485;28;20502;-78
2021/05/02 05:40:06;;;;;;;38.67;18.38;;;;;;;10.22;100.00;101838.00;5175710;28;20029;-78
2021/05/02 05:42:37;;;;;;;37.03;20.20;;;;;;;10.83;100.00;101845.75;5178380;28;20124;-78
2021/05/02 05:45:08;;;;;;;33.67;18.88;;;;;;;11.38;100.00;101843.22;5183548;28;20022;-78
2021/05/02 05:47:38;;;;;;;30.33;17.85;;;;;;;11.54;100.00;101847.09;5177032;28;20034;-78
2021/05/02 05:50:13;;;;;;;36.53;19.23;;;;;;;11.86;100.00;101846.72;5187738;28;20037;-78
2021/05/02 05:52:44;;;;;;;36.40;18.95;;;;;;;11.92;100.00;101851.47;5192009;28;20050;-78
2021/05/02 05:55:16;;;;;;;29.13;18.40;;;;;;;12.41;98.28;101852.84;5190546;28;20113;-78
2021/05/02 05:57:48;;;;;;;33.47;18.67;;;;;;;12.57;91.82;101857.53;5179818;28;20038;-78
2021/05/02 06:00:22;;;;;;;32.00;18.75;;;;;;;12.76;90.82;101866.44;5170843;28;20109;-80
2021/05/02 06:02:52;;;;;;;32.47;17.88;;;;;;;12.81;91.38;101864.13;5182425;28;20026;-80
2021/05/02 06:05:22;;;;;;;26.35;16.30;;;;;;;13.37;76.26;101868.25;5171695;28;20040;-80
2021/05/02 06:07:53;;;;;;;27.77;17.20;;;;;;;12.94;85.20;101869.94;5182742;28;20081;-80
2021/05/02 06:10:23;;;;;;;26.83;15.93;;;;;;;13.34;76.55;101863.16;5178026;28;20034;-79
2021/05/02 06:12:55;;;;;;;213.60;83.97;;;;;;;13.74;68.49;101866.06;5184466;28;20034;-80
2021/05/02 06:15:25;;;;;;;48.47;22.42;;;;;;;13.60;66.85;101866.66;5176899;28;20010;-79
2021/05/02 06:17:56;;;;;;;30.02;14.88;;;;;;;12.64;78.55;101868.50;5188670;28;20049;-79
2021/05/02 06:20:26;;;;;;;27.15;13.25;;;;;;;12.04;87.78;101866.41;5173700;28;20069;-79
2021/05/02 06:22:57;;;;;;;18.80;9.75;;;;;;;11.74;84.62;101864.00;5189218;28;20033;-81
2021/05/02 06:25:27;;;;;;;16.20;8.30;;;;;;;10.58;96.74;101870.50;5168742;28;20408;-80
2021/05/02 06:27:59;;;;;;;16.48;9.38;;;;;;;9.77;100.00;101867.09;5168413;28;20476;-79
2021/05/02 06:30:30;;;;;;;16.70;8.95;;;;;;;9.28;100.00;101871.41;5166441;28;20041;-79
2021/05/02 06:33:01;;;;;;;22.52;9.23;;;;;;;9.08;100.00;101873.97;5166661;28;20503;-80
2021/05/02 06:35:31;;;;;;;22.83;9.57;;;;;;;8.89;100.00;101875.69;5174764;28;20054;-80
2021/05/02 06:38:02;;;;;;;17.10;9.55;;;;;;;8.77;100.00;101875.72;5166786;28;20525;-80
2021/05/02 06:40:34;;;;;;;25.83;8.85;;;;;;;8.56;100.00;101865.00;5173798;28;20418;-80
2021/05/02 06:43:06;;;;;;;23.17;10.65;;;;;;;8.50;100.00;101878.91;5176630;28;20026;-79
2021/05/02 06:45:37;;;;;;;24.15;8.45;;;;;;;8.52;100.00;101868.91;5172697;28;20034;-79
2021/05/02 06:48:07;;;;;;;20.23;8.80;;;;;;;8.43;100.00;101867.00;5176616;28;20054;-79
2021/05/02 06:50:38;;;;;;;16.23;6.90;;;;;;;8.41;100.00;101876.97;5173596;28;20049;-79
2021/05/02 06:53:08;;;;;;;12.48;7.60;;;;;;;8.55;100.00;101879.38;5181011;28;20030;-79
2021/05/02 06:55:39;;;;;;;10.23;4.80;;;;;;;8.45;100.00;101878.44;5177954;28;20030;-79
2021/05/02 06:58:10;;;;;;;16.88;6.25;;;;;;;8.47;100.00;101880.97;5172103;28;20658;-79
2021/05/02 07:00:41;;;;;;;12.20;5.82;;;;;;;8.61;100.00;101880.66;5162653;28;20492;-79
2021/05/02 07:03:11;;;;;;;16.95;6.05;;;;;;;8.78;100.00;101881.91;5163614;28;20038;-79
2021/05/02 07:05:42;;;;;;;13.95;5.93;;;;;;;9.07;100.00;101893.69;5157256;28;20040;-79
2021/05/02 07:08:13;;;;;;;11.30;5.75;;;;;;;9.12;100.00;101879.06;5173864;28;20420;-79
2021/05/02 07:10:44;;;;;;;11.45;5.88;;;;;;;9.32;100.00;101892.41;5183537;28;20034;-78
2021/05/02 07:13:14;;;;;;;14.27;5.40;;;;;;;9.56;100.00;101894.81;5204197;28;20049;-79
2021/05/02 07:15:44;;;;;;;9.30;4.00;;;;;;;9.58;100.00;101898.19;5169208;28;20026;-78
2021/05/02 07:18:15;;;;;;;9.63;4.22;;;;;;;9.49;100.00;101904.38;5190043;28;20045;-79
2021/05/02 07:20:48;;;;;;;12.13;3.30;;;;;;;9.04;100.00;101909.19;5193914;28;20022;-79
2021/05/02 07:23:18;;;;;;;10.45;3.53;;;;;;;8.97;100.00;101908.81;5200503;28;20085;-80
2021/05/02 07:25:48;;;;;;;10.75;3.88;;;;;;;9.00;100.00;101907.72;5193660;28;20387;-79
2021/05/02 07:28:19;;;;;;;6.22;3.03;;;;;;;9.28;100.00;101911.56;5180622;28;20085;-79
2021/05/02 07:30:50;;;;;;;6.78;3.05;;;;;;;9.14;100.00;101915.44;5185001;28;20030;-79
2021/05/02 07:33:22;;;;;;;9.18;3.50;;;;;;;9.06;100.00;101923.25;5183150;28;20029;-79
2021/05/02 07:35:55;;;;;;;10.85;3.63;;;;;;;9.36;100.00;101917.13;5177619;28;20030;-80
2021/05/02 07:38:27;;;;;;;8.88;3.50;;;;;;;9.56;100.00;101921.59;5201747;28;20033;-80
2021/05/02 07:40:58;;;;;;;7.28;2.97;;;;;;;9.48;98.97;101923.22;5195239;28;20029;-79
2021/05/02 07:43:29;;;;;;;6.32;3.35;;;;;;;9.81;100.00;101922.13;5181640;28;20030;-79
2021/05/02 07:46:00;;;;;;;7.90;2.60;;;;;;;9.94;98.76;101922.75;5185104;28;20037;-80
2021/05/02 07:48:31;;;;;;;14.40;3.15;;;;;;;10.13;89.56;101920.09;5191225;28;20100;-80
2021/05/02 07:51:02;;;;;;;9.05;2.95;;;;;;;10.19;82.10;101917.84;5193197;28;20052;-80
2021/05/02 07:53:33;;;;;;;6.45;2.92;;;;;;;10.31;76.00;101919.50;5180089;28;20049;-81
2021/05/02 07:56:03;;;;;;;6.78;2.50;;;;;;;10.49;75.66;101925.88;5180053;28;20026;-81
2021/05/02 07:58:34;;;;;;;9.00;2.47;;;;;;;10.72;83.80;101920.22;5181951;28;20030;-80
2021/05/02 08:01:05;;;;;;;4.10;2.15;;;;;;;10.42;66.72;101924.72;5179836;28;20054;-80
2021/05/02 08:03:35;;;;;;;6.93;2.45;;;;;;;10.07;68.05;101922.50;5196769;28;20085;-80
2021/05/02 08:06:05;;;;;;;8.88;2.60;;;;;;;10.04;68.89;101914.72;5180111;28;20077;-80
2021/05/02 08:08:36;;;;;;;7.72;2.28;;;;;;;9.91;71.18;101928.38;5175245;28;20022;-80
2021/05/02 08:11:06;;;;;;;8.90;2.80;;;;;;;10.17;71.36;101911.78;5196222;28;20045;-80
2021/05/02 08:13:37;;;;;;;9.98;2.30;;;;;;;10.34;68.18;101919.19;5182685;28;20069;-80
2021/05/02 08:16:07;;;;;;;6.40;2.47;;;;;;;10.44;66.19;101920.09;5193487;28;20026;-80
2021/05/02 08:18:38;;;;;;;3.80;1.75;;;;;;;10.35;64.99;101926.28;5192891;28;20033;-79
2021/05/02 08:21:10;;;;;;;7.00;2.08;;;;;;;10.35;63.52;101920.91;5181043;28;20045;-80
2021/05/02 08:23:40;;;;;;;9.10;2.00;;;;;;;10.38;63.82;101928.66;5184980;28;20038;-80
2021/05/02 08:26:11;;;;;;;5.97;2.10;;;;;;;10.55;65.62;101927.16;5184192;28;20049;-80
2021/05/02 08:28:41;;;;;;;7.53;2.28;;;;;;;10.54;65.11;101922.75;5173630;28;20154;-78
2021/05/02 08:31:12;;;;;;;6.35;1.80;;;;;;;10.77;63.88;101924.19;5183683;28;20047;-79
2021/05/02 08:33:43;;;;;;;9.65;2.95;;;;;;;10.66;70.12;101934.22;5178010;28;20078;-80
2021/05/02 08:36:13;;;;;;;8.85;2.83;;;;;;;10.19;76.31;101929.47;5178723;28;20064;-80
2021/05/02 08:38:44;;;;;;;7.18;2.80;;;;;;;9.88;79.54;101934.00;5155417;28;20027;-80
2021/05/02 08:41:14;;;;;;;9.80;3.75;;;;;;;9.66;84.95;101943.06;5177562;28;20048;-80
2021/05/02 08:43:51;;;;;;;14.45;3.03;;;;;;;9.23;88.04;101945.91;5180678;28;20105;-80
2021/05/02 08:46:22;;;;;;;8.88;3.33;;;;;;;9.01;94.55;101941.53;5190379;28;20025;-80
2021/05/02 08:48:53;;;;;;;8.10;3.10;;;;;;;8.94;99.35;101935.88;5177128;28;20057;-79
2021/05/02 08:51:24;;;;;;;10.38;3.00;;;;;;;8.96;94.97;101941.09;5183190;28;20033;-80
2021/05/02 08:53:55;;;;;;;65.97;27.02;;;;;;;8.86;99.97;101941.00;5177187;28;20022;-80
2021/05/02 08:56:25;;;;;;;27.48;9.88;;;;;;;8.82;99.37;101939.56;5171271;28;20045;-80
2021/05/02 08:58:56;;;;;;;13.48;4.20;;;;;;;8.78;99.31;101941.63;5177806;28;20480;-79
2021/05/02 09:01:29;;;;;;;19.80;17.30;;;;;;;8.77;100.00;101944.44;5172889;28;20033;-80
2021/05/02 09:04:03;;;;;;;28.45;19.15;;;;;;;8.93;100.00;101941.31;5190984;28;20021;-80
2021/05/02 09:06:36;;;;;;;8.50;4.00;;;;;;;9.37;100.00;101942.06;5182041;28;20023;-80
2021/05/02 09:09:10;;;;;;;10.15;2.80;;;;;;;10.34;83.65;101932.59;5157872;28;20057;-80
2021/05/02 09:11:44;;;;;;;6.70;2.25;;;;;;;10.89;68.61;101935.63;5184264;28;20034;-80
2021/05/02 09:14:19;;;;;;;8.23;2.95;;;;;;;10.92;74.44;101927.28;5170911;28;20154;-80
2021/05/02 09:16:51;;;;;;;12.32;2.85;;;;;;;10.79;69.58;101929.41;5173999;28;20238;-80
2021/05/02 09:19:24;;;;;;;6.60;2.70;;;;;;;10.58;66.41;101949.16;5170774;28;20027;-80
2021/05/02 09:21:55;;;;;;;6.70;2.05;;;;;;;10.28;64.88;101939.38;5183080;28;20034;-80
2021/05/02 09:24:31;;;;;;;3.97;2.08;;;;;;;9.90;65.41;101942.75;5181116;28;20558;-80
2021/05/02 09:27:05;;;;;;;4.63;2.30;;;;;;;9.84;68.09;101943.31;5174492;28;20022;-80
2021/05/02 09:29:36;;;;;;;4.47;1.83;;;;;;;10.21;72.34;101932.00;5187293;28;20038;-81
2021/05/02 09:32:08;;;;;;;5.13;2.17;;;;;;;10.62;64.44;101931.81;5177563;28;20057;-80
2021/05/02 09:34:47;;;;;;;3.17;1.67;;;;;;;11.07;63.64;101933.06;5177395;28;20022;-80
2021/05/02 09:37:20;;;;;;;9.52;2.22;;;;;;;11.52;64.86;101938.63;5191070;28;20025;-81
2021/05/02 09:39:53;;;;;;;5.28;1.70;;;;;;;11.64;61.83;101929.38;5176501;28;20029;-79
2021/05/02 09:42:25;;;;;;;6.95;1.77;;;;;;;11.46;61.23;101949.13;5185868;28;20061;-79
2021/05/02 09:44:57;;;;;;;4.63;1.52;;;;;;;11.16;58.50;101945.66;5173317;28;20030;-82
2021/05/02 09:47:32;;;;;;;5.28;1.95;;;;;;;10.82;60.08;101937.19;5172925;28;20090;-81
2021/05/02 09:50:05;;;;;;;19.37;7.80;;;;;;;10.53;60.36;101940.69;5185256;28;20485;-80
2021/05/02 09:52:44;;;;;;;27.60;11.10;;;;;;;10.53;60.56;101940.69;5165646;28;20086;-81
2021/05/02 09:55:22;;;;;;;6.47;1.80;;;;;;;10.86;59.34;101939.44;5164743;28;20018;-80
2021/05/02 09:58:06;;;;;;;8.35;4.20;;;;;;;11.17;58.02;101939.28;5166054;28;20045;-81
2021/05/02 10:00:40;;;;;;;4.22;2.15;;;;;;;11.89;50.48;101938.66;5165581;28;20030;-82
2021/05/02 10:03:14;;;;;;;4.00;2.03;;;;;;;12.31;51.00;101935.50;5181748;28;20033;-80
2021/05/02 10:06:09;;;;;;;3.92;1.70;;;;;;;12.51;49.92;101933.50;5174172;28;20491;-81
2021/05/02 10:08:40;;;;;;;4.00;1.60;;;;;;;12.24;51.65;101944.31;5173998;28;20022;-80
2021/05/02 10:11:11;;;;;;;5.93;3.05;;;;;;;11.77;54.20;101941.66;5183290;28;20032;-80
2021/05/02 10:13:42;;;;;;;3.58;1.73;;;;;;;11.33;57.43;101957.47;5175838;28;20030;-81
2021/05/02 10:16:14;;;;;;;4.80;1.77;;;;;;;10.66;62.10;101958.38;5184266;28;20033;-81
2021/05/02 10:18:45;;;;;;;18.48;2.10;;;;;;;10.56;62.05;101961.88;5170178;28;20060;-80
2021/05/02 10:21:16;;;;;;;7.65;1.83;;;;;;;10.35;62.87;101964.66;5168149;28;20046;-81
2021/05/02 10:23:47;;;;;;;5.75;2.20;;;;;;;10.38;67.23;101966.22;5165737;28;20030;-82
2021/05/02 10:26:17;;;;;;;5.30;1.90;;;;;;;10.46;74.07;101958.34;5173995;28;20076;-79
2021/05/02 10:28:48;;;;;;;10.40;2.30;;;;;;;10.56;78.64;101967.25;5167097;28;20029;-80
2021/05/02 10:31:28;;;;;;;6.35;2.67;;;;;;;10.69;75.98;101968.81;5175740;28;20490;-79
2021/05/02 10:33:59;;;;;;;4.45;2.25;;;;;;;10.54;76.96;101969.25;5184561;28;20503;-82
2021/05/02 10:36:29;;;;;;;9.40;3.22;;;;;;;10.76;76.58;101964.59;5171791;28;20025;-82
2021/05/02 10:39:01;;;;;;;44.90;15.75;;;;;;;10.98;73.95;101969.66;5167998;28;20463;-82
2021/05/02 10:41:34;;;;;;;13.13;5.65;;;;;;;10.96;67.11;101976.19;5184132;28;20112;-82
2021/05/02 10:44:05;;;;;;;12.10;10.90;;;;;;;10.86;60.06;101965.44;5187936;28;20108;-82
2021/05/02 10:46:43;;;;;;;3.70;2.22;;;;;;;10.85;58.64;101969.13;5188922;28;20028;-82
2021/05/02 10:49:19;;;;;;;5.15;2.75;;;;;;;10.79;60.80;101970.53;5186875;28;20068;-82
2021/05/02 10:51:52;;;;;;;8.75;2.92;;;;;;;10.85;60.04;101966.44;5195137;28;20108;-83
2021/05/02 10:54:40;;;;;;;6.55;1.90;;;;;;;10.93;61.89;101963.03;5193552;28;20025;-82
2021/05/02 10:57:35;;;;;;;4.72;1.60;;;;;;;11.04;58.05;101958.34;5178542;28;20046;-82
2021/05/02 11:00:08;;;;;;;4.70;1.50;;;;;;;11.07;55.01;101962.63;5183180;28;20049;-82
2021/05/02 11:02:42;;;;;;;4.00;1.95;;;;;;;11.22;54.24;101957.66;5194767;28;20061;-81
2021/05/02 11:05:14;;;;;;;5.82;2.00;;;;;;;11.31;52.93;101956.78;5183384;28;20022;-81
2021/05/02 11:07:47;;;;;;;3.25;1.80;;;;;;;11.50;52.61;101963.97;5177034;28;20037;-82
2021/05/02 11:10:18;;;;;;;3.17;1.75;;;;;;;11.73;50.57;101959.94;5184680;28;20079;-82
2021/05/02 11:12:48;;;;;;;1.75;1.35;;;;;;;11.48;51.13;101964.09;5174648;28;20439;-81
2021/05/02 11:15:37;;;;;;;5.05;1.83;;;;;;;11.53;51.24;101964.50;5177171;28;20108;-82
2021/05/02 11:18:21;;;;;;;3.28;1.75;;;;;;;11.65;52.91;101962.53;5192779;28;20094;-82
2021/05/02 11:20:52;;;;;;;3.63;2.15;;;;;;;11.47;55.43;101965.09;5182072;28;20037;-82
2021/05/02 11:23:53;;;;;;;6.43;2.50;;;;;;;11.64;54.52;101967.03;5185150;28;20483;-83
2021/05/02 11:26:46;;;;;;;7.65;2.00;;;;;;;11.90;59.45;101963.75;5183230;28;20030;-82
2021/05/02 11:29:20;;;;;;;8.95;2.63;;;;;;;12.10;58.26;101959.97;5186760;28;20496;-82
2021/05/02 11:31:51;;;;;;;4.88;2.65;;;;;;;12.14;56.14;101955.97;5190436;28;20065;-82
2021/05/02 11:34:21;;;;;;;5.47;2.33;;;;;;;12.47;56.47;101963.56;5186305;28;20388;-80
2021/05/02 11:36:52;;;;;;;5.57;2.45;;;;;;;12.50;56.07;101961.44;5191973;28;20026;-82
2021/05/02 11:39:42;;;;;;;26.60;11.15;;;;;;;12.57;54.04;101967.06;5182690;28;20027;-82